createdAt,value
2022-08-12T00:02:04.277Z,71.10
2022-08-12T00:04:52.229Z,70.40
2022-08-12T00:07:38.057Z,70.90
2022-08-12T00:10:24.001Z,70.90
2022-08-12T00:13:11.762Z,71.50
2022-08-12T00:16:00.782Z,71.70
2022-08-12T00:18:46.562Z,71.80
2022-08-12T00:21:32.452Z,72.40
2022-08-12T00:24:22.222Z,73.40
2022-08-12T00:27:07.852Z,73.80
2022-08-12T00:29:55.202Z,73.80
2022-08-12T00:32:40.922Z,73.60
2022-08-12T00:35:36.822Z,74.10
2022-08-12T00:38:22.804Z,74.50
2022-08-12T00:41:08.533Z,75.20
2022-08-12T00:43:37.353Z,75.60
2022-08-12T00:46:25.453Z,75.90
2022-08-12T00:48:53.852Z,76.90
2022-08-12T00:51:22.733Z,78.10
2022-08-12T00:53:52.442Z,77.00
2022-08-12T00:56:21.493Z,77.50
2022-08-12T00:58:52.722Z,78.80
2022-08-12T01:01:25.182Z,78.70
2022-08-12T01:04:16.708Z,79.00
2022-08-12T01:07:02.362Z,79.70
2022-08-12T01:09:49.231Z,79.50
2022-08-12T01:12:18.951Z,80.00
2022-08-12T01:14:47.460Z,80.50
2022-08-12T01:17:17.123Z,80.90
2022-08-12T01:19:48.853Z,81.30
2022-08-12T01:22:23.234Z,81.60
2022-08-12T01:24:57.981Z,82.50
2022-08-12T01:27:27.342Z,83.60
2022-08-12T01:29:55.842Z,83.50
2022-08-12T01:32:25.123Z,84.20
2022-08-12T01:34:56.551Z,85.00
2022-08-12T01:37:26.242Z,86.10
2022-08-12T01:40:34.652Z,87.00
2022-08-12T01:42:46.540Z,86.60
2022-08-12T01:45:15.752Z,86.90
2022-08-12T01:47:50.962Z,88.20
2022-08-12T01:50:22.601Z,87.60
2022-08-12T01:52:56.973Z,89.00
2022-08-12T01:55:28.671Z,88.90
2022-08-12T01:58:01.592Z,90.00
2022-08-12T02:00:54.882Z,90.30
2022-08-12T02:03:55.239Z,90.40
2022-08-12T02:06:44.621Z,90.80
2022-08-12T02:09:32.660Z,91.10
2022-08-12T02:12:08.504Z,91.30
2022-08-12T02:14:46.380Z,92.40
2022-08-12T02:17:55.285Z,92.90
2022-08-12T02:20:23.630Z,93.60
2022-08-12T02:23:05.009Z,95.50
2022-08-12T02:25:36.862Z,96.70
2022-08-12T02:28:08.036Z,97.10
2022-08-12T02:30:42.411Z,97.20
2022-08-12T02:33:12.462Z,98.00
2022-08-12T02:35:41.259Z,98.00
2022-08-12T02:38:10.621Z,98.40
2022-08-12T02:40:39.908Z,99.30
2022-08-12T02:43:13.859Z,99.90
2022-08-12T02:45:45.678Z,99.90
2022-08-12T02:48:17.168Z,99.90
2022-08-12T02:50:48.198Z,99.90
2022-08-12T02:53:16.798Z,99.90
2022-08-12T02:55:45.880Z,99.90
2022-08-12T02:58:16.042Z,99.90
2022-08-12T03:00:48.621Z,99.90
2022-08-12T03:03:20.578Z,99.90
2022-08-12T03:05:52.490Z,99.90
2022-08-12T03:08:32.671Z,99.90
2022-08-12T03:11:04.589Z,99.90
2022-08-12T03:13:40.300Z,99.90
2022-08-12T03:16:09.140Z,99.90
2022-08-12T03:18:37.840Z,99.90
2022-08-12T03:21:06.369Z,99.90
2022-08-12T03:23:34.690Z,99.90
2022-08-12T03:26:03.611Z,99.90
2022-08-12T03:28:50.227Z,99.90
2022-08-12T03:31:22.249Z,99.90
2022-08-12T03:34:02.198Z,99.90
2022-08-12T03:36:33.657Z,99.90
2022-08-12T03:39:17.478Z,99.90
2022-08-12T03:41:51.299Z,99.90
2022-08-12T03:44:41.707Z,99.90
2022-08-12T03:47:31.279Z,99.90
2022-08-12T03:50:17.130Z,99.90
2022-08-12T03:53:02.901Z,99.90
2022-08-12T03:55:48.658Z,99.90
2022-08-12T03:58:34.932Z,99.90
2022-08-12T04:01:03.409Z,99.90
2022-08-12T04:03:50.788Z,99.90
2022-08-12T04:06:34.799Z,99.90
2022-08-12T04:09:16.446Z,99.90
2022-08-12T04:12:03.268Z,99.90
2022-08-12T04:14:31.921Z,99.90
2022-08-12T04:17:00.432Z,99.90
2022-08-12T04:19:31.066Z,99.90
2022-08-12T04:22:04.083Z,99.90
2022-08-12T04:24:35.529Z,99.90
2022-08-12T04:27:06.478Z,99.90
2022-08-12T04:30:29.422Z,99.90
2022-08-12T04:32:28.958Z,98.30
2022-08-12T04:34:59.128Z,93.70
2022-08-12T04:37:27.400Z,90.90
2022-08-12T04:39:56.086Z,88.80
2022-08-12T04:42:26.360Z,83.90
2022-08-12T04:44:55.300Z,80.50
2022-08-12T04:47:24.780Z,80.40
2022-08-12T04:49:53.058Z,77.90
2022-08-12T04:52:22.879Z,76.30
2022-08-12T04:54:51.258Z,74.70
2022-08-12T04:57:19.488Z,74.00
2022-08-12T04:59:49.026Z,72.70
2022-08-12T05:02:21.555Z,72.80
2022-08-12T05:04:51.270Z,73.10
2022-08-12T05:07:19.498Z,75.50
2022-08-12T05:10:00.569Z,76.60
2022-08-12T05:12:34.192Z,78.60
2022-08-12T05:15:02.591Z,79.70
2022-08-12T05:17:30.898Z,82.10
2022-08-12T05:20:00.270Z,83.20
2022-08-12T05:22:29.019Z,85.10
2022-08-12T05:24:58.689Z,87.00
2022-08-12T05:27:28.668Z,89.60
2022-08-12T05:30:07.233Z,89.60
2022-08-12T05:32:37.192Z,90.10
2022-08-12T05:35:07.027Z,89.30
2022-08-12T05:37:35.909Z,88.80
2022-08-12T05:40:10.912Z,89.70
2022-08-12T05:42:40.320Z,90.40
2022-08-12T05:45:09.509Z,89.40
2022-08-12T05:47:53.839Z,89.70
2022-08-12T05:50:22.648Z,89.30
2022-08-12T05:52:53.007Z,89.80
2022-08-12T05:55:28.129Z,89.00
2022-08-12T05:57:59.159Z,88.10
2022-08-12T06:00:29.450Z,88.70
2022-08-12T06:03:01.393Z,89.60
2022-08-12T06:05:30.228Z,89.60
2022-08-12T06:08:01.223Z,89.70
2022-08-12T06:10:33.204Z,90.10
2022-08-12T06:13:02.682Z,90.50
2022-08-12T06:15:31.700Z,90.90
2022-08-12T06:18:14.206Z,90.50
2022-08-12T06:20:45.677Z,90.80
2022-08-12T06:23:15.471Z,90.30
2022-08-12T06:25:46.758Z,90.60
2022-08-12T06:28:17.630Z,89.50
2022-08-12T06:31:08.213Z,90.20
2022-08-12T06:33:55.653Z,90.60
2022-08-12T06:36:25.266Z,90.10
2022-08-12T06:38:58.847Z,88.80
2022-08-12T06:42:04.843Z,88.50
2022-08-12T06:44:35.167Z,89.20
2022-08-12T06:47:04.084Z,89.40
2022-08-12T06:49:36.684Z,89.30
2022-08-12T06:52:07.574Z,90.00
2022-08-12T06:54:36.076Z,90.00
2022-08-12T06:58:01.759Z,89.70
2022-08-12T06:59:54.634Z,89.60
2022-08-12T07:02:26.003Z,89.90
2022-08-12T07:04:54.444Z,89.00
2022-08-12T07:07:22.841Z,88.60
2022-08-12T07:10:01.328Z,89.20
2022-08-12T07:12:38.090Z,89.20
2022-08-12T07:15:08.153Z,88.80
2022-08-12T07:17:39.623Z,89.90
2022-08-12T07:20:29.716Z,89.40
2022-08-12T07:23:00.396Z,88.80
2022-08-12T07:25:40.282Z,87.90
2022-08-12T07:28:16.085Z,87.60
2022-08-12T07:30:45.704Z,87.50
2022-08-12T07:33:17.063Z,86.50
2022-08-12T07:35:48.462Z,85.50
2022-08-12T07:38:29.762Z,86.10
2022-08-12T07:41:01.888Z,85.50
2022-08-12T07:43:32.794Z,84.60
2022-08-12T07:46:02.657Z,85.30
2022-08-12T07:48:36.927Z,83.90
2022-08-12T07:51:05.504Z,83.60
2022-08-12T07:53:33.804Z,82.30
2022-08-12T07:56:16.677Z,81.70
2022-08-12T07:58:47.746Z,79.40
2022-08-12T08:01:34.458Z,78.00
2022-08-12T08:04:20.415Z,78.20
2022-08-12T08:06:49.243Z,77.70
2022-08-12T08:09:19.024Z,76.20
2022-08-12T08:12:04.642Z,75.40
2022-08-12T08:14:34.386Z,74.30
2022-08-12T08:17:03.626Z,73.80
2022-08-12T08:20:02.138Z,73.00
2022-08-12T08:22:32.036Z,73.30
2022-08-12T08:25:34.744Z,72.50
2022-08-12T08:28:00.676Z,71.70
2022-08-12T08:30:32.319Z,72.20
2022-08-12T08:33:00.744Z,71.50
2022-08-12T08:35:46.157Z,70.60
2022-08-12T08:38:19.856Z,70.70
2022-08-12T08:42:15.460Z,71.30
2022-08-12T08:44:06.921Z,68.40
2022-08-12T08:46:38.237Z,67.30
2022-08-12T08:49:07.154Z,68.10
2022-08-12T08:51:35.631Z,67.40
2022-08-12T08:54:04.016Z,67.70
2022-08-12T08:56:33.342Z,67.70
2022-08-12T08:59:01.607Z,67.70
2022-08-12T09:01:37.544Z,68.40
2022-08-12T09:05:09.842Z,68.10
2022-08-12T09:07:17.682Z,68.20
2022-08-12T09:10:01.379Z,68.60
2022-08-12T09:15:41.658Z,68.30
2022-08-12T09:18:11.900Z,67.50
2022-08-12T09:20:42.477Z,67.80
2022-08-12T09:23:57.050Z,67.30
2022-08-12T09:26:04.531Z,66.60
2022-08-12T09:28:34.553Z,66.80
2022-08-12T09:32:06.442Z,66.30
2022-08-12T09:34:28.603Z,66.10
2022-08-12T09:36:58.565Z,65.80
2022-08-12T09:40:05.534Z,65.60
2022-08-12T09:42:43.588Z,65.30
2022-08-12T09:46:19.867Z,64.30
2022-08-12T09:48:20.054Z,64.70
2022-08-12T09:50:52.043Z,64.40
2022-08-12T09:53:36.482Z,64.00
2022-08-12T09:56:58.276Z,63.80
2022-08-12T09:59:00.095Z,64.90
2022-08-12T10:01:35.481Z,66.10
2022-08-12T10:04:20.754Z,65.20
2022-08-12T10:06:55.677Z,64.20
2022-08-12T10:09:28.802Z,64.50
2022-08-12T10:12:34.321Z,64.10
2022-08-12T10:15:02.923Z,65.00
2022-08-12T10:17:31.395Z,64.20
2022-08-12T10:20:01.693Z,64.70
2022-08-12T10:22:49.161Z,65.10
2022-08-12T10:26:33.865Z,65.00
2022-08-12T10:28:42.150Z,63.70
2022-08-12T10:31:47.058Z,63.10
2022-08-12T10:34:26.134Z,63.60
2022-08-12T10:37:10.516Z,63.20
2022-08-12T10:40:05.766Z,62.20
2022-08-12T10:43:00.517Z,61.80
2022-08-12T10:45:31.936Z,61.10
2022-08-12T10:48:21.852Z,62.30
2022-08-12T10:51:00.444Z,61.90
2022-08-12T10:53:45.003Z,62.50
2022-08-12T10:56:15.517Z,62.00
2022-08-12T10:58:47.217Z,62.90
2022-08-12T11:01:49.954Z,62.40
2022-08-12T11:04:23.264Z,62.90
2022-08-12T11:07:09.299Z,64.00
2022-08-12T11:09:59.671Z,62.20
2022-08-12T11:12:56.079Z,62.20
2022-08-12T11:15:32.984Z,60.60
2022-08-12T11:18:18.517Z,61.30
2022-08-12T11:20:48.965Z,62.30
2022-08-12T11:23:35.958Z,61.90
2022-08-12T11:26:07.588Z,60.80
2022-08-12T11:28:38.257Z,61.00
2022-08-12T11:31:09.946Z,60.30
2022-08-12T11:34:05.953Z,60.40
2022-08-12T11:36:30.806Z,60.50
2022-08-12T11:39:04.353Z,59.50
2022-08-12T11:41:34.866Z,59.10
2022-08-12T11:44:36.905Z,59.20
2022-08-12T11:46:54.923Z,58.00
2022-08-12T11:49:31.371Z,57.40
2022-08-12T11:52:02.453Z,58.00
2022-08-12T11:54:31.212Z,58.10
2022-08-12T11:57:02.004Z,56.70
2022-08-12T12:02:21.826Z,56.30
2022-08-12T12:04:52.820Z,55.80
2022-08-12T12:08:36.306Z,55.70
2022-08-12T12:10:12.509Z,56.10
2022-08-12T12:12:48.563Z,55.30
2022-08-12T12:15:25.143Z,55.40
2022-08-12T12:18:07.192Z,55.10
2022-08-12T12:20:36.351Z,54.00
2022-08-12T12:23:04.682Z,54.50
2022-08-12T12:25:59.966Z,55.30
2022-08-12T12:28:37.635Z,55.30
2022-08-12T12:31:14.957Z,55.40
2022-08-12T12:33:58.558Z,55.10
2022-08-12T12:36:30.282Z,54.90
2022-08-12T12:39:00.222Z,54.80
2022-08-12T12:42:42.692Z,54.90
2022-08-12T12:44:25.540Z,54.50
2022-08-12T12:46:58.613Z,54.90
2022-08-12T12:49:30.534Z,55.30
2022-08-12T12:52:18.879Z,56.00
2022-08-12T12:54:53.018Z,56.30
2022-08-12T12:57:36.284Z,56.10
2022-08-12T13:00:16.575Z,56.60
2022-08-12T13:02:53.820Z,56.70
2022-08-12T13:05:28.064Z,56.40
2022-08-12T13:08:00.773Z,55.80
2022-08-12T13:10:36.396Z,55.80
2022-08-12T13:14:08.227Z,55.90
2022-08-12T13:15:54.103Z,55.90
2022-08-12T13:18:28.918Z,56.00
2022-08-12T13:20:59.461Z,56.10
2022-08-12T13:23:35.897Z,56.20
2022-08-12T13:26:14.603Z,55.80
2022-08-12T13:28:53.356Z,55.60
2022-08-12T13:31:25.139Z,55.30
2022-08-12T13:34:32.870Z,55.10
2022-08-12T13:36:47.456Z,55.10
2022-08-12T13:39:16.384Z,55.10
2022-08-12T13:41:44.803Z,55.30
2022-08-12T13:44:13.282Z,55.40
2022-08-12T13:46:42.396Z,56.00
2022-08-12T13:49:17.244Z,56.60
2022-08-12T13:51:54.127Z,57.60
2022-08-12T13:54:22.603Z,56.40
2022-08-12T13:56:51.547Z,56.50
2022-08-12T13:59:24.498Z,56.90
2022-08-12T14:01:56.876Z,57.00
2022-08-12T14:04:25.505Z,57.10
2022-08-12T14:06:58.474Z,57.40
2022-08-12T14:09:29.697Z,57.90
2022-08-12T14:11:58.760Z,57.70
2022-08-12T14:14:31.561Z,57.30
2022-08-12T14:17:05.712Z,57.10
2022-08-12T14:19:48.666Z,57.30
2022-08-12T14:22:25.955Z,57.50
2022-08-12T14:24:54.935Z,57.40
2022-08-12T14:28:03.660Z,57.60
2022-08-12T14:30:29.503Z,57.30
2022-08-12T14:33:02.879Z,57.50
2022-08-12T14:35:41.057Z,57.80
2022-08-12T14:38:25.446Z,57.30
2022-08-12T14:40:57.388Z,57.20
2022-08-12T14:43:31.584Z,56.80
2022-08-12T14:46:13.337Z,57.30
2022-08-12T14:48:46.506Z,57.10
2022-08-12T14:52:54.964Z,57.50
2022-08-12T14:57:00.199Z,57.20
2022-08-12T14:57:20.015Z,57.60
2022-08-12T15:00:05.266Z,57.70
2022-08-12T15:02:33.738Z,57.50
2022-08-12T15:05:03.548Z,57.10
2022-08-12T15:07:51.235Z,56.60
2022-08-12T15:10:31.237Z,56.30
2022-08-12T15:13:07.303Z,57.10
2022-08-12T15:15:43.764Z,57.60
2022-08-12T15:18:14.810Z,58.00
2022-08-12T15:20:43.221Z,57.80
2022-08-12T15:23:18.015Z,57.80
2022-08-12T15:26:00.096Z,58.00
2022-08-12T15:28:34.458Z,57.40
2022-08-12T15:31:09.640Z,56.80
2022-08-12T15:33:52.726Z,56.10
2022-08-12T15:36:36.515Z,55.80
2022-08-12T15:39:17.227Z,55.90
2022-08-12T15:41:49.349Z,56.40
2022-08-12T15:44:38.789Z,56.90
2022-08-12T15:47:09.657Z,56.90
2022-08-12T15:49:54.228Z,56.80
2022-08-12T15:52:28.220Z,56.50
2022-08-12T15:54:58.490Z,56.20
2022-08-12T15:57:28.708Z,56.20
2022-08-12T16:00:07.450Z,56.80
2022-08-12T16:02:42.052Z,56.70
2022-08-12T16:06:16.767Z,56.50
2022-08-12T16:08:15.225Z,56.90
2022-08-12T16:10:46.179Z,56.70
2022-08-12T16:13:25.444Z,56.80
2022-08-12T16:16:03.803Z,57.10
2022-08-12T16:18:33.841Z,57.30
2022-08-12T16:21:02.440Z,57.40
2022-08-12T16:23:51.517Z,57.50
2022-08-12T16:26:27.551Z,57.50
2022-08-12T16:29:15.145Z,57.60
2022-08-12T16:31:45.000Z,57.60
2022-08-12T16:34:38.398Z,57.80
2022-08-12T16:37:07.376Z,57.60
2022-08-12T16:40:01.077Z,56.30
2022-08-12T16:42:28.081Z,56.40
2022-08-12T16:44:59.987Z,56.40
2022-08-12T16:47:58.297Z,56.20
2022-08-12T16:50:22.899Z,56.20
2022-08-12T16:53:03.422Z,56.20
2022-08-12T16:55:42.521Z,56.20
2022-08-12T16:58:18.530Z,56.20
2022-08-12T17:01:01.802Z,56.30
2022-08-12T17:03:36.718Z,55.40
2022-08-12T17:06:06.631Z,55.50
2022-08-12T17:08:35.717Z,55.50
2022-08-12T17:11:08.375Z,55.40
2022-08-12T17:13:37.128Z,55.30
2022-08-12T17:16:41.527Z,55.60
2022-08-12T17:19:15.960Z,55.60
2022-08-12T17:22:01.516Z,55.60
2022-08-12T17:24:32.649Z,56.00
2022-08-12T17:27:09.491Z,56.30
2022-08-12T17:30:01.299Z,56.50
2022-08-12T17:32:33.356Z,56.60
2022-08-12T17:35:21.497Z,56.80
2022-08-12T17:37:51.076Z,56.80
2022-08-12T17:40:35.306Z,57.00
2022-08-12T17:43:56.520Z,57.20
2022-08-12T17:45:59.936Z,57.60
2022-08-12T17:48:34.312Z,57.60
2022-08-12T17:51:15.609Z,57.80
2022-08-12T17:54:11.675Z,58.00
2022-08-12T17:56:37.519Z,58.10
2022-08-12T17:59:07.354Z,58.30
2022-08-12T18:01:36.966Z,58.50
2022-08-12T18:04:21.704Z,58.70
2022-08-12T18:06:53.905Z,58.90
2022-08-12T18:09:35.984Z,59.00
2022-08-12T18:12:24.718Z,59.20
2022-08-12T18:14:56.585Z,59.40
2022-08-12T18:17:27.476Z,59.50
2022-08-12T18:20:06.395Z,59.80
2022-08-12T18:22:38.583Z,59.90
2022-08-12T18:26:12.635Z,60.10
2022-08-12T18:28:16.043Z,60.40
2022-08-12T18:30:52.776Z,60.70
2022-08-12T18:33:25.511Z,61.10
2022-08-12T18:35:56.944Z,61.40
2022-08-12T18:38:28.442Z,61.60
2022-08-12T18:41:21.079Z,61.80
2022-08-12T18:43:58.941Z,62.00
2022-08-12T18:46:46.932Z,62.30
2022-08-12T18:49:20.051Z,62.60
2022-08-12T18:51:55.465Z,62.80
2022-08-12T18:54:36.219Z,63.00
2022-08-12T18:57:16.551Z,63.30
2022-08-12T19:00:02.131Z,63.50
2022-08-12T19:02:40.167Z,64.00
2022-08-12T19:05:11.361Z,64.10
2022-08-12T19:07:49.520Z,64.30
2022-08-12T19:10:31.290Z,64.70
2022-08-12T19:13:23.774Z,65.30
2022-08-12T19:15:54.893Z,65.20
2022-08-12T19:18:30.975Z,65.40
2022-08-12T19:21:12.058Z,65.50
2022-08-12T19:24:05.102Z,65.80
2022-08-12T19:26:57.355Z,66.10
2022-08-12T19:29:26.248Z,66.50
2022-08-12T19:31:59.309Z,66.80
2022-08-12T19:37:26.568Z,66.90
2022-08-12T19:40:07.762Z,67.00
2022-08-12T19:42:44.927Z,67.30
2022-08-12T19:45:18.288Z,67.40
2022-08-12T19:47:47.993Z,67.70
2022-08-12T19:50:20.107Z,67.90
2022-08-12T19:52:51.365Z,68.00
2022-08-12T19:55:23.729Z,68.40
2022-08-12T19:58:03.050Z,68.70
2022-08-12T20:00:35.892Z,69.00
2022-08-12T20:03:06.447Z,69.50
2022-08-12T20:06:05.028Z,69.70
2022-08-12T20:08:34.692Z,70.00
2022-08-12T20:12:09.402Z,70.30
2022-08-12T20:14:01.484Z,70.40
2022-08-12T20:19:52.944Z,71.40
2022-08-12T20:22:24.254Z,71.30
2022-08-12T20:25:01.282Z,71.40
2022-08-12T20:28:03.507Z,71.60
2022-08-12T20:30:37.584Z,71.80
2022-08-12T20:33:32.325Z,72.00
2022-08-12T20:36:13.232Z,72.40
2022-08-12T20:38:51.832Z,72.80
2022-08-12T20:41:21.129Z,72.80
2022-08-12T20:43:55.048Z,73.00
2022-08-12T20:46:28.408Z,73.20
2022-08-12T20:48:57.743Z,73.50
2022-08-12T20:51:27.528Z,73.40
2022-08-12T20:53:59.082Z,73.70
2022-08-12T20:56:34.633Z,73.60
2022-08-12T20:59:05.728Z,73.90
2022-08-12T21:01:45.986Z,74.00
2022-08-12T21:04:33.149Z,74.30
2022-08-12T21:07:08.254Z,74.40
2022-08-12T21:09:40.548Z,74.70
2022-08-12T21:12:31.031Z,74.80
2022-08-12T21:15:22.951Z,75.10
2022-08-12T21:18:07.896Z,75.50
2022-08-12T21:20:40.007Z,75.90
2022-08-12T21:23:09.888Z,76.30
2022-08-12T21:25:45.584Z,77.10
2022-08-12T21:28:15.028Z,77.00
2022-08-12T21:31:11.568Z,77.60
2022-08-12T21:34:06.426Z,78.00
2022-08-12T21:36:34.448Z,78.20
2022-08-12T21:39:19.090Z,79.50
2022-08-12T21:41:51.472Z,79.30
2022-08-12T21:44:24.136Z,79.40
2022-08-12T21:47:20.206Z,80.00
2022-08-12T21:50:03.974Z,80.30
2022-08-12T21:52:36.502Z,81.00
2022-08-12T21:55:08.582Z,81.50
2022-08-12T21:57:53.718Z,81.90
2022-08-12T22:00:33.120Z,82.30
2022-08-12T22:04:01.646Z,82.70
2022-08-12T22:06:30.865Z,83.40
2022-08-12T22:09:16.094Z,84.20
2022-08-12T22:11:56.521Z,85.10
2022-08-12T22:14:28.488Z,86.10
2022-08-12T22:16:58.169Z,87.00
2022-08-12T22:19:27.218Z,87.70
2022-08-12T22:21:58.850Z,88.60
2022-08-12T22:24:33.069Z,89.60
2022-08-12T22:27:08.335Z,90.30
2022-08-12T22:30:08.468Z,90.70
2022-08-12T22:32:42.105Z,91.10
2022-08-12T22:35:55.551Z,91.40
2022-08-12T22:38:23.993Z,91.90
2022-08-12T22:40:53.888Z,92.30
2022-08-12T22:43:58.754Z,92.80
2022-08-12T22:46:52.111Z,93.30
2022-08-12T22:49:36.770Z,93.60
2022-08-12T22:52:14.290Z,94.20
2022-08-12T22:55:03.733Z,94.90
2022-08-12T22:57:49.376Z,95.10
2022-08-12T23:00:24.368Z,96.00
2022-08-12T23:02:58.500Z,97.20
2022-08-12T23:05:57.236Z,97.60
2022-08-12T23:08:22.619Z,98.20
2022-08-12T23:10:52.995Z,98.90
2022-08-12T23:13:43.874Z,99.90
2022-08-12T23:16:18.153Z,99.90
2022-08-12T23:18:59.646Z,99.90
2022-08-12T23:22:04.224Z,99.90
2022-08-12T23:24:18.047Z,99.90
2022-08-12T23:27:06.143Z,99.90
2022-08-12T23:29:43.862Z,99.90
2022-08-12T23:32:36.520Z,99.90
2022-08-12T23:35:06.650Z,99.90
2022-08-12T23:37:47.460Z,99.90
2022-08-12T23:40:24.209Z,99.90
2022-08-12T23:42:55.787Z,99.90
2022-08-12T23:45:31.565Z,99.90
2022-08-12T23:48:03.589Z,99.90
2022-08-12T23:50:34.575Z,99.90
2022-08-12T23:53:05.751Z,99.90
2022-08-12T23:55:40.797Z,99.90
2022-08-12T23:58:22.811Z,99.90
